sensor_id;sensor_type;location;lat;lon;timestamp;pressure;altitude;pressure_sealevel;temperature;humidity
14882;BME280;7533;51.278;12.588;2023-09-30T00:04:48;100651.78;;;29.69;54.09
14882;BME280;7533;51.278;12.588;2023-09-30T00:09:51;100659.56;;;29.64;54.11
14882;BME280;7533;51.278;12.588;2023-09-30T00:14:55;100666.16;;;29.62;53.83
14882;BME280;7533;51.278;12.588;2023-09-30T00:19:58;100673.78;;;29.58;53.94
14882;BME280;7533;51.278;12.588;2023-09-30T00:25:01;100676.19;;;29.51;53.58
14882;BME280;7533;51.278;12.588;2023-09-30T00:30:07;100701.06;;;29.48;53.91
14882;BME280;7533;51.278;12.588;2023-09-30T00:35:10;100705.25;;;29.43;53.96
14882;BME280;7533;51.278;12.588;2023-09-30T00:40:13;100703.66;;;29.40;53.61
14882;BME280;7533;51.278;12.588;2023-09-30T00:45:17;100708.00;;;29.33;53.85
14882;BME280;7533;51.278;12.588;2023-09-30T00:50:22;100716.50;;;29.30;53.58
14882;BME280;7533;51.278;12.588;2023-09-30T00:55:25;100734.16;;;29.26;53.81
14882;BME280;7533;51.278;12.588;2023-09-30T01:00:31;100736.28;;;29.22;53.49
14882;BME280;7533;51.278;12.588;2023-09-30T01:05:34;100739.44;;;29.18;53.56
14882;BME280;7533;51.278;12.588;2023-09-30T01:10:36;100729.56;;;29.17;53.71
14882;BME280;7533;51.278;12.588;2023-09-30T01:15:41;100741.03;;;29.11;53.86
14882;BME280;7533;51.278;12.588;2023-09-30T01:20:44;100755.97;;;29.07;53.42
14882;BME280;7533;51.278;12.588;2023-09-30T01:25:49;100766.31;;;29.03;53.93
14882;BME280;7533;51.278;12.588;2023-09-30T01:30:52;100767.75;;;28.97;53.50
14882;BME280;7533;51.278;12.588;2023-09-30T01:35:55;100773.47;;;28.94;53.62
14882;BME280;7533;51.278;12.588;2023-09-30T01:40:59;100775.72;;;28.89;53.42
14882;BME280;7533;51.278;12.588;2023-09-30T01:46:02;100784.22;;;28.86;53.77
14882;BME280;7533;51.278;12.588;2023-09-30T01:51:07;100787.34;;;28.82;53.68
14882;BME280;7533;51.278;12.588;2023-09-30T01:56:11;100803.84;;;28.80;53.28
14882;BME280;7533;51.278;12.588;2023-09-30T02:01:14;100812.31;;;28.77;53.65
14882;BME280;7533;51.278;12.588;2023-09-30T02:06:17;100819.03;;;28.73;53.30
14882;BME280;7533;51.278;12.588;2023-09-30T02:11:21;100817.59;;;28.69;53.45
14882;BME280;7533;51.278;12.588;2023-09-30T02:16:24;100809.00;;;28.64;53.29
14882;BME280;7533;51.278;12.588;2023-09-30T02:21:27;100827.75;;;28.57;53.33
14882;BME280;7533;51.278;12.588;2023-09-30T02:26:32;100823.44;;;28.55;53.69
14882;BME280;7533;51.278;12.588;2023-09-30T02:31:35;100835.75;;;28.49;53.60
14882;BME280;7533;51.278;12.588;2023-09-30T02:36:39;100841.19;;;28.49;53.77
14882;BME280;7533;51.278;12.588;2023-09-30T02:41:45;100857.09;;;28.44;53.49
14882;BME280;7533;51.278;12.588;2023-09-30T02:46:48;100854.50;;;28.42;53.92
14882;BME280;7533;51.278;12.588;2023-09-30T02:51:51;100860.09;;;28.41;53.72
14882;BME280;7533;51.278;12.588;2023-09-30T02:56:55;100881.16;;;28.39;53.59
14882;BME280;7533;51.278;12.588;2023-09-30T03:01:58;100889.88;;;28.33;53.74
14882;BME280;7533;51.278;12.588;2023-09-30T03:07:01;100891.72;;;28.32;53.75
14882;BME280;7533;51.278;12.588;2023-09-30T03:12:06;100899.28;;;28.29;53.94
14882;BME280;7533;51.278;12.588;2023-09-30T03:17:10;100907.56;;;28.27;53.73
14882;BME280;7533;51.278;12.588;2023-09-30T03:22:14;100928.91;;;28.22;53.76
14882;BME280;7533;51.278;12.588;2023-09-30T03:27:18;100910.13;;;28.19;53.88
14882;BME280;7533;51.278;12.588;2023-09-30T03:32:22;100903.22;;;28.15;53.66
14882;BME280;7533;51.278;12.588;2023-09-30T03:37:26;100916.97;;;28.13;54.13
14882;BME280;7533;51.278;12.588;2023-09-30T03:42:31;100910.94;;;28.10;54.02
14882;BME280;7533;51.278;12.588;2023-09-30T03:47:34;100915.78;;;28.06;53.91
14882;BME280;7533;51.278;12.588;2023-09-30T03:52:39;100919.63;;;28.04;53.89
14882;BME280;7533;51.278;12.588;2023-09-30T03:57:47;100922.63;;;28.01;53.81
14882;BME280;7533;51.278;12.588;2023-09-30T04:02:51;100928.19;;;27.99;54.12
14882;BME280;7533;51.278;12.588;2023-09-30T04:07:59;100933.78;;;27.98;54.14
14882;BME280;7533;51.278;12.588;2023-09-30T04:13:04;100938.59;;;27.94;53.91
14882;BME280;7533;51.278;12.588;2023-09-30T04:18:07;100947.91;;;27.91;54.10
14882;BME280;7533;51.278;12.588;2023-09-30T04:23:10;100953.88;;;27.85;54.30
14882;BME280;7533;51.278;12.588;2023-09-30T04:28:15;100966.34;;;27.88;54.10
14882;BME280;7533;51.278;12.588;2023-09-30T04:33:21;100958.31;;;27.86;54.16
14882;BME280;7533;51.278;12.588;2023-09-30T04:38:26;100963.06;;;27.84;54.20
14882;BME280;7533;51.278;12.588;2023-09-30T04:43:30;100958.84;;;27.80;54.18
14882;BME280;7533;51.278;12.588;2023-09-30T04:48:34;100961.72;;;27.79;54.13
14882;BME280;7533;51.278;12.588;2023-09-30T04:53:37;100967.28;;;27.77;54.13
14882;BME280;7533;51.278;12.588;2023-09-30T04:58:42;100971.13;;;27.75;54.11
14882;BME280;7533;51.278;12.588;2023-09-30T05:03:45;100960.09;;;27.76;54.02
14882;BME280;7533;51.278;12.588;2023-09-30T05:08:51;100959.38;;;27.74;53.94
14882;BME280;7533;51.278;12.588;2023-09-30T05:13:55;100955.91;;;27.72;54.02
14882;BME280;7533;51.278;12.588;2023-09-30T05:18:58;100965.06;;;27.71;53.85
14882;BME280;7533;51.278;12.588;2023-09-30T05:24:01;100967.28;;;27.66;53.75
14882;BME280;7533;51.278;12.588;2023-09-30T05:29:05;100988.19;;;27.65;53.85
14882;BME280;7533;51.278;12.588;2023-09-30T05:34:08;100998.34;;;27.63;53.71
14882;BME280;7533;51.278;12.588;2023-09-30T05:39:11;101005.78;;;27.61;53.97
14882;BME280;7533;51.278;12.588;2023-09-30T05:44:15;101019.47;;;27.60;53.81
14882;BME280;7533;51.278;12.588;2023-09-30T05:49:18;101026.19;;;27.56;54.00
14882;BME280;7533;51.278;12.588;2023-09-30T05:54:21;101044.47;;;27.54;53.86
14882;BME280;7533;51.278;12.588;2023-09-30T05:59:27;101041.88;;;27.52;53.83
14882;BME280;7533;51.278;12.588;2023-09-30T06:04:30;101047.34;;;27.52;53.86
14882;BME280;7533;51.278;12.588;2023-09-30T06:09:35;101061.53;;;27.56;53.79
14882;BME280;7533;51.278;12.588;2023-09-30T06:14:39;101046.09;;;27.56;53.76
14882;BME280;7533;51.278;12.588;2023-09-30T06:19:42;101043.22;;;27.58;53.65
14882;BME280;7533;51.278;12.588;2023-09-30T06:24:45;101062.28;;;27.58;53.65
14882;BME280;7533;51.278;12.588;2023-09-30T06:29:49;101044.97;;;27.59;53.59
14882;BME280;7533;51.278;12.588;2023-09-30T06:34:52;101052.13;;;27.60;53.20
14882;BME280;7533;51.278;12.588;2023-09-30T06:39:55;101056.56;;;27.61;53.44
14882;BME280;7533;51.278;12.588;2023-09-30T06:45:00;101070.28;;;27.59;53.44
14882;BME280;7533;51.278;12.588;2023-09-30T06:50:04;101056.84;;;27.58;53.44
14882;BME280;7533;51.278;12.588;2023-09-30T06:55:09;101064.66;;;27.40;52.06
14882;BME280;7533;51.278;12.588;2023-09-30T07:00:16;101072.44;;;26.66;51.06
14882;BME280;7533;51.278;12.588;2023-09-30T07:05:19;101074.28;;;26.30;50.88
14882;BME280;7533;51.278;12.588;2023-09-30T07:10:23;101070.50;;;26.09;50.71
14882;BME280;7533;51.278;12.588;2023-09-30T07:15:27;101070.25;;;25.77;50.42
14882;BME280;7533;51.278;12.588;2023-09-30T07:20:30;101086.03;;;25.59;51.57
14882;BME280;7533;51.278;12.588;2023-09-30T07:25:34;101090.91;;;25.54;51.73
14882;BME280;7533;51.278;12.588;2023-09-30T07:30:39;101086.28;;;25.30;52.04
14882;BME280;7533;51.278;12.588;2023-09-30T07:35:42;101100.94;;;25.02;52.25
14882;BME280;7533;51.278;12.588;2023-09-30T07:40:45;101104.53;;;24.90;52.53
14882;BME280;7533;51.278;12.588;2023-09-30T07:45:50;101116.66;;;24.85;52.42
14882;BME280;7533;51.278;12.588;2023-09-30T07:50:53;101113.75;;;24.75;52.13
14882;BME280;7533;51.278;12.588;2023-09-30T07:55:56;101113.63;;;24.64;52.49
14882;BME280;7533;51.278;12.588;2023-09-30T08:01:00;101117.94;;;24.66;53.66
14882;BME280;7533;51.278;12.588;2023-09-30T08:06:07;101128.69;;;25.19;52.79
14882;BME280;7533;51.278;12.588;2023-09-30T08:11:10;101110.03;;;25.40;52.71
14882;BME280;7533;51.278;12.588;2023-09-30T08:16:15;101125.16;;;25.55;52.81
14882;BME280;7533;51.278;12.588;2023-09-30T08:21:22;101129.81;;;25.66;53.00
14882;BME280;7533;51.278;12.588;2023-09-30T08:26:25;101142.59;;;25.76;52.90
14882;BME280;7533;51.278;12.588;2023-09-30T08:31:30;101136.94;;;25.79;53.18
14882;BME280;7533;51.278;12.588;2023-09-30T08:36:32;101144.84;;;25.82;53.34
14882;BME280;7533;51.278;12.588;2023-09-30T08:41:36;101133.75;;;25.85;53.55
14882;BME280;7533;51.278;12.588;2023-09-30T08:46:40;101138.72;;;25.92;53.65
14882;BME280;7533;51.278;12.588;2023-09-30T08:51:44;101142.75;;;25.99;53.76
14882;BME280;7533;51.278;12.588;2023-09-30T08:56:49;101147.91;;;26.02;53.82
14882;BME280;7533;51.278;12.588;2023-09-30T09:01:53;101153.22;;;26.03;53.87
14882;BME280;7533;51.278;12.588;2023-09-30T09:06:56;101143.00;;;26.07;53.59
14882;BME280;7533;51.278;12.588;2023-09-30T09:11:59;101144.91;;;26.18;53.78
14882;BME280;7533;51.278;12.588;2023-09-30T09:17:06;101143.72;;;26.22;53.67
14882;BME280;7533;51.278;12.588;2023-09-30T09:22:10;101145.66;;;26.20;53.96
14882;BME280;7533;51.278;12.588;2023-09-30T09:27:13;101144.66;;;26.21;54.06
14882;BME280;7533;51.278;12.588;2023-09-30T09:32:19;101142.84;;;26.21;54.33
14882;BME280;7533;51.278;12.588;2023-09-30T09:37:24;101147.78;;;26.03;51.73
14882;BME280;7533;51.278;12.588;2023-09-30T09:42:28;101141.69;;;25.39;51.10
14882;BME280;7533;51.278;12.588;2023-09-30T09:47:33;101134.75;;;25.48;51.49
14882;BME280;7533;51.278;12.588;2023-09-30T09:52:37;101132.34;;;25.43;52.00
14882;BME280;7533;51.278;12.588;2023-09-30T09:57:43;101144.66;;;25.11;50.57
14882;BME280;7533;51.278;12.588;2023-09-30T10:02:48;101143.09;;;24.81;51.04
14882;BME280;7533;51.278;12.588;2023-09-30T10:07:52;101148.34;;;24.57;50.64
14882;BME280;7533;51.278;12.588;2023-09-30T10:12:56;101146.72;;;24.42;49.87
14882;BME280;7533;51.278;12.588;2023-09-30T10:18:02;101145.56;;;24.32;50.71
14882;BME280;7533;51.278;12.588;2023-09-30T10:23:21;101146.91;;;24.39;51.19
14882;BME280;7533;51.278;12.588;2023-09-30T10:28:33;101150.53;;;24.25;50.17
14882;BME280;7533;51.278;12.588;2023-09-30T10:45:05;101152.38;;;24.24;51.63
14882;BME280;7533;51.278;12.588;2023-09-30T10:55:50;101139.09;;;24.87;52.26
14882;BME280;7533;51.278;12.588;2023-09-30T11:00:57;101138.44;;;24.83;50.03
14882;BME280;7533;51.278;12.588;2023-09-30T11:06:03;101130.97;;;24.87;48.96
14882;BME280;7533;51.278;12.588;2023-09-30T11:11:11;101130.63;;;24.78;48.78
14882;BME280;7533;51.278;12.588;2023-09-30T11:16:15;101132.16;;;24.83;49.00
14882;BME280;7533;51.278;12.588;2023-09-30T11:21:18;101125.00;;;24.82;48.59
14882;BME280;7533;51.278;12.588;2023-09-30T11:26:30;101119.91;;;24.90;49.18
14882;BME280;7533;51.278;12.588;2023-09-30T11:31:37;101114.38;;;24.91;48.65
14882;BME280;7533;51.278;12.588;2023-09-30T11:36:48;101108.00;;;25.05;48.32
14882;BME280;7533;51.278;12.588;2023-09-30T11:41:54;101102.38;;;25.21;48.01
14882;BME280;7533;51.278;12.588;2023-09-30T11:47:00;101092.16;;;25.37;48.09
14882;BME280;7533;51.278;12.588;2023-09-30T11:52:07;101098.19;;;25.41;47.50
14882;BME280;7533;51.278;12.588;2023-09-30T11:57:14;101103.00;;;25.24;46.22
14882;BME280;7533;51.278;12.588;2023-09-30T12:02:17;101100.72;;;25.31;46.84
14882;BME280;7533;51.278;12.588;2023-09-30T12:07:21;101100.38;;;25.36;46.18
14882;BME280;7533;51.278;12.588;2023-09-30T12:12:25;101092.78;;;25.41;45.99
14882;BME280;7533;51.278;12.588;2023-09-30T12:17:28;101098.72;;;25.46;46.16
14882;BME280;7533;51.278;12.588;2023-09-30T12:22:31;101083.25;;;25.72;46.42
14882;BME280;7533;51.278;12.588;2023-09-30T12:27:35;101067.34;;;25.91;47.01
14882;BME280;7533;51.278;12.588;2023-09-30T12:32:41;101061.81;;;25.93;45.21
14882;BME280;7533;51.278;12.588;2023-09-30T12:37:44;101064.81;;;26.01;44.92
14882;BME280;7533;51.278;12.588;2023-09-30T12:42:49;101064.59;;;26.15;45.19
14882;BME280;7533;51.278;12.588;2023-09-30T12:47:52;101056.50;;;26.26;44.79
14882;BME280;7533;51.278;12.588;2023-09-30T12:52:58;101057.38;;;26.27;44.04
14882;BME280;7533;51.278;12.588;2023-09-30T12:58:03;101049.50;;;26.35;44.40
14882;BME280;7533;51.278;12.588;2023-09-30T13:03:06;101050.19;;;26.50;43.84
14882;BME280;7533;51.278;12.588;2023-09-30T13:08:09;101051.94;;;26.62;44.65
14882;BME280;7533;51.278;12.588;2023-09-30T13:13:14;101059.94;;;26.52;43.41
14882;BME280;7533;51.278;12.588;2023-09-30T13:18:17;101063.38;;;26.54;42.67
14882;BME280;7533;51.278;12.588;2023-09-30T13:23:20;101056.13;;;26.55;42.44
14882;BME280;7533;51.278;12.588;2023-09-30T13:28:24;101038.22;;;26.63;42.42
14882;BME280;7533;51.278;12.588;2023-09-30T13:33:29;101034.03;;;26.71;42.21
14882;BME280;7533;51.278;12.588;2023-09-30T13:38:32;101045.00;;;26.69;42.70
14882;BME280;7533;51.278;12.588;2023-09-30T13:43:37;101046.38;;;26.75;43.17
14882;BME280;7533;51.278;12.588;2023-09-30T13:48:43;101043.78;;;26.84;42.57
14882;BME280;7533;51.278;12.588;2023-09-30T13:53:46;101036.13;;;27.01;42.42
14882;BME280;7533;51.278;12.588;2023-09-30T13:58:50;101037.75;;;27.14;42.47
14882;BME280;7533;51.278;12.588;2023-09-30T14:03:54;101034.28;;;27.24;42.50
14882;BME280;7533;51.278;12.588;2023-09-30T14:08:59;101034.28;;;27.24;42.20
14882;BME280;7533;51.278;12.588;2023-09-30T14:14:04;101033.91;;;27.06;41.99
14882;BME280;7533;51.278;12.588;2023-09-30T14:19:07;101026.88;;;27.14;41.93
14882;BME280;7533;51.278;12.588;2023-09-30T14:24:10;101023.56;;;27.11;41.85
14882;BME280;7533;51.278;12.588;2023-09-30T14:29:14;101026.84;;;27.03;42.23
14882;BME280;7533;51.278;12.588;2023-09-30T14:34:17;101025.63;;;26.96;42.26
14882;BME280;7533;51.278;12.588;2023-09-30T14:39:20;101028.84;;;27.01;42.75
14882;BME280;7533;51.278;12.588;2023-09-30T14:44:25;101018.13;;;27.54;41.78
14882;BME280;7533;51.278;12.588;2023-09-30T14:49:27;101011.66;;;27.78;41.83
14882;BME280;7533;51.278;12.588;2023-09-30T14:54:30;101003.09;;;27.50;41.38
14882;BME280;7533;51.278;12.588;2023-09-30T14:59:35;100987.72;;;27.60;41.28
14882;BME280;7533;51.278;12.588;2023-09-30T15:04:38;100989.25;;;27.85;40.85
14882;BME280;7533;51.278;12.588;2023-09-30T15:09:41;100990.09;;;28.28;41.09
14882;BME280;7533;51.278;12.588;2023-09-30T15:14:46;100984.63;;;28.18;40.49
14882;BME280;7533;51.278;12.588;2023-09-30T15:19:49;101002.94;;;27.95;40.87
14882;BME280;7533;51.278;12.588;2023-09-30T15:24:53;101005.53;;;27.97;40.39
14882;BME280;7533;51.278;12.588;2023-09-30T15:29:58;101003.72;;;27.86;40.79
14882;BME280;7533;51.278;12.588;2023-09-30T15:35:01;100990.38;;;27.51;40.68
14882;BME280;7533;51.278;12.588;2023-09-30T15:40:06;100997.72;;;27.28;40.48
14882;BME280;7533;51.278;12.588;2023-09-30T15:45:11;101001.31;;;27.28;40.91
14882;BME280;7533;51.278;12.588;2023-09-30T15:50:14;101019.47;;;27.28;40.59
14882;BME280;7533;51.278;12.588;2023-09-30T15:55:17;101014.41;;;27.12;40.59
14882;BME280;7533;51.278;12.588;2023-09-30T16:00:22;101005.75;;;26.96;41.66
14882;BME280;7533;51.278;12.588;2023-09-30T16:05:25;101001.31;;;26.83;41.48
14882;BME280;7533;51.278;12.588;2023-09-30T16:10:28;100999.47;;;26.73;41.12
14882;BME280;7533;51.278;12.588;2023-09-30T16:15:32;100993.66;;;26.44;41.44
14882;BME280;7533;51.278;12.588;2023-09-30T16:20:36;101010.59;;;26.23;42.30
14882;BME280;7533;51.278;12.588;2023-09-30T16:25:39;100999.13;;;26.20;42.20
14882;BME280;7533;51.278;12.588;2023-09-30T16:30:44;101006.56;;;26.29;42.66
14882;BME280;7533;51.278;12.588;2023-09-30T16:35:47;101005.25;;;26.57;43.58
14882;BME280;7533;51.278;12.588;2023-09-30T16:40:52;100996.41;;;26.66;43.94
14882;BME280;7533;51.278;12.588;2023-09-30T16:46:00;101005.50;;;26.76;44.12
14882;BME280;7533;51.278;12.588;2023-09-30T16:51:08;101010.22;;;26.85;44.51
14882;BME280;7533;51.278;12.588;2023-09-30T16:56:11;101018.72;;;26.92;44.63
14882;BME280;7533;51.278;12.588;2023-09-30T17:01:16;101022.06;;;26.96;45.08
14882;BME280;7533;51.278;12.588;2023-09-30T17:06:19;101017.22;;;26.99;45.15
14882;BME280;7533;51.278;12.588;2023-09-30T17:11:22;101030.06;;;26.97;45.17
14882;BME280;7533;51.278;12.588;2023-09-30T17:16:27;101031.56;;;26.90;45.42
14882;BME280;7533;51.278;12.588;2023-09-30T17:21:30;101029.56;;;27.03;45.71
14882;BME280;7533;51.278;12.588;2023-09-30T17:26:33;101028.75;;;27.14;45.72
14882;BME280;7533;51.278;12.588;2023-09-30T17:31:38;101030.81;;;27.22;45.32
14882;BME280;7533;51.278;12.588;2023-09-30T17:36:42;101031.72;;;27.22;45.44
14882;BME280;7533;51.278;12.588;2023-09-30T17:41:45;101032.44;;;27.24;45.51
14882;BME280;7533;51.278;12.588;2023-09-30T17:46:49;101029.44;;;27.27;45.58
14882;BME280;7533;51.278;12.588;2023-09-30T17:51:52;101029.06;;;27.32;45.52
14882;BME280;7533;51.278;12.588;2023-09-30T17:56:55;101030.28;;;27.50;45.29
14882;BME280;7533;51.278;12.588;2023-09-30T18:01:59;101043.41;;;27.45;45.38
14882;BME280;7533;51.278;12.588;2023-09-30T18:07:02;101049.69;;;27.46;45.10
14882;BME280;7533;51.278;12.588;2023-09-30T18:12:06;101044.00;;;27.49;45.31
14882;BME280;7533;51.278;12.588;2023-09-30T18:17:11;101049.69;;;27.46;45.35
14882;BME280;7533;51.278;12.588;2023-09-30T18:22:14;101034.84;;;27.50;45.56
14882;BME280;7533;51.278;12.588;2023-09-30T18:27:17;101035.84;;;27.49;45.34
14882;BME280;7533;51.278;12.588;2023-09-30T18:32:21;101055.63;;;27.51;45.17
14882;BME280;7533;51.278;12.588;2023-09-30T18:37:24;101039.16;;;27.52;45.13
14882;BME280;7533;51.278;12.588;2023-09-30T18:42:28;101042.50;;;27.56;45.59
14882;BME280;7533;51.278;12.588;2023-09-30T18:47:33;101046.44;;;27.63;46.26
14882;BME280;7533;51.278;12.588;2023-09-30T18:52:36;101047.69;;;27.59;45.60
14882;BME280;7533;51.278;12.588;2023-09-30T18:57:39;101042.63;;;27.54;45.61
14882;BME280;7533;51.278;12.588;2023-09-30T19:02:43;101045.22;;;27.56;45.74
14882;BME280;7533;51.278;12.588;2023-09-30T19:07:47;101036.66;;;27.60;45.76
14882;BME280;7533;51.278;12.588;2023-09-30T19:12:50;101031.97;;;27.62;46.00
14882;BME280;7533;51.278;12.588;2023-09-30T19:17:55;101035.03;;;27.69;45.77
14882;BME280;7533;51.278;12.588;2023-09-30T19:22:58;101032.69;;;27.76;45.57
14882;BME280;7533;51.278;12.588;2023-09-30T19:28:01;101029.97;;;27.76;45.42
14882;BME280;7533;51.278;12.588;2023-09-30T19:33:06;101033.06;;;27.71;45.26
14882;BME280;7533;51.278;12.588;2023-09-30T19:38:09;101043.84;;;27.73;45.24
14882;BME280;7533;51.278;12.588;2023-09-30T19:43:12;101040.25;;;27.72;44.73
14882;BME280;7533;51.278;12.588;2023-09-30T19:48:17;101044.09;;;27.70;44.94
14882;BME280;7533;51.278;12.588;2023-09-30T19:53:20;101040.13;;;27.74;44.99
14882;BME280;7533;51.278;12.588;2023-09-30T19:58:23;101039.28;;;27.73;44.78
14882;BME280;7533;51.278;12.588;2023-09-30T20:03:27;101033.56;;;27.76;45.16
14882;BME280;7533;51.278;12.588;2023-09-30T20:08:31;101039.34;;;27.83;45.14
14882;BME280;7533;51.278;12.588;2023-09-30T20:13:35;101034.75;;;27.83;44.81
14882;BME280;7533;51.278;12.588;2023-09-30T20:18:40;101041.72;;;27.76;44.35
14882;BME280;7533;51.278;12.588;2023-09-30T20:23:43;101033.31;;;27.79;44.34
14882;BME280;7533;51.278;12.588;2023-09-30T20:28:46;101027.88;;;27.79;44.29
14882;BME280;7533;51.278;12.588;2023-09-30T20:33:52;101030.50;;;28.02;43.80
14882;BME280;7533;51.278;12.588;2023-09-30T20:38:55;101041.31;;;28.13;43.45
14882;BME280;7533;51.278;12.588;2023-09-30T20:44:01;101036.06;;;28.21;43.22
14882;BME280;7533;51.278;12.588;2023-09-30T20:49:07;101039.53;;;28.23;43.64
14882;BME280;7533;51.278;12.588;2023-09-30T20:54:11;101032.81;;;28.27;43.27
14882;BME280;7533;51.278;12.588;2023-09-30T20:59:14;101028.22;;;28.28;43.21
14882;BME280;7533;51.278;12.588;2023-09-30T21:04:18;101028.72;;;28.33;42.90
14882;BME280;7533;51.278;12.588;2023-09-30T21:09:23;101034.91;;;28.35;43.03
14882;BME280;7533;51.278;12.588;2023-09-30T21:14:26;101036.78;;;28.34;42.94
14882;BME280;7533;51.278;12.588;2023-09-30T21:19:30;101033.31;;;28.32;42.61
14882;BME280;7533;51.278;12.588;2023-09-30T21:24:33;101037.88;;;28.32;42.63
14882;BME280;7533;51.278;12.588;2023-09-30T21:29:38;101036.13;;;28.31;42.56
14882;BME280;7533;51.278;12.588;2023-09-30T21:34:42;101032.56;;;28.30;42.72
14882;BME280;7533;51.278;12.588;2023-09-30T21:39:45;101039.00;;;28.29;42.64
14882;BME280;7533;51.278;12.588;2023-09-30T21:44:48;101048.13;;;28.28;42.68
14882;BME280;7533;51.278;12.588;2023-09-30T21:49:52;101048.28;;;28.27;42.92
14882;BME280;7533;51.278;12.588;2023-09-30T21:54:55;101044.44;;;28.29;42.75
14882;BME280;7533;51.278;12.588;2023-09-30T21:59:59;101046.94;;;28.32;42.88
14882;BME280;7533;51.278;12.588;2023-09-30T22:05:07;101048.38;;;28.36;43.02
14882;BME280;7533;51.278;12.588;2023-09-30T22:10:11;101050.84;;;28.39;42.78
14882;BME280;7533;51.278;12.588;2023-09-30T22:15:15;101042.94;;;28.36;42.97
14882;BME280;7533;51.278;12.588;2023-09-30T22:20:19;101050.97;;;28.38;42.85
14882;BME280;7533;51.278;12.588;2023-09-30T22:25:22;101050.41;;;28.34;42.50
14882;BME280;7533;51.278;12.588;2023-09-30T22:30:25;101047.78;;;28.33;42.52
14882;BME280;7533;51.278;12.588;2023-09-30T22:35:31;101041.47;;;28.32;42.72
14882;BME280;7533;51.278;12.588;2023-09-30T22:40:33;101039.13;;;28.28;43.03
14882;BME280;7533;51.278;12.588;2023-09-30T22:45:36;101043.44;;;28.30;42.50
14882;BME280;7533;51.278;12.588;2023-09-30T22:50:41;101041.97;;;28.26;42.61
14882;BME280;7533;51.278;12.588;2023-09-30T22:55:43;101040.50;;;28.22;42.69
14882;BME280;7533;51.278;12.588;2023-09-30T23:00:47;101039.78;;;28.20;42.87
14882;BME280;7533;51.278;12.588;2023-09-30T23:05:52;101035.06;;;28.22;43.04
14882;BME280;7533;51.278;12.588;2023-09-30T23:10:55;101036.34;;;28.18;42.59
14882;BME280;7533;51.278;12.588;2023-09-30T23:15:59;101029.28;;;28.15;42.77
14882;BME280;7533;51.278;12.588;2023-09-30T23:21:03;101040.19;;;28.15;42.98
14882;BME280;7533;51.278;12.588;2023-09-30T23:26:08;101051.06;;;28.15;43.05
14882;BME280;7533;51.278;12.588;2023-09-30T23:31:11;101045.38;;;28.18;42.93
14882;BME280;7533;51.278;12.588;2023-09-30T23:36:17;101043.75;;;28.16;43.07
14882;BME280;7533;51.278;12.588;2023-09-30T23:41:20;101046.63;;;28.14;43.19
14882;BME280;7533;51.278;12.588;2023-09-30T23:46:25;101041.91;;;28.16;43.28
14882;BME280;7533;51.278;12.588;2023-09-30T23:51:30;101048.19;;;28.17;43.28
14882;BME280;7533;51.278;12.588;2023-09-30T23:56:33;101035.34;;;28.19;43.35
